Time;durP1;ratioP1;P1;durP2;ratioP2;P2;SDS_P1;SDS_P2;PMS_P1;PMS_P2;Temp;Humidity;BMP_temperature;BMP_pressure;BME280_temperature;BME280_humidity;BME280_pressure;Samples;Min_cycle;Max_cycle;Signal;HPM_P1;HPM_P2
2022/10/15 00:01:08;;;;;;;113.30;54.47;;;12.20;99.90;;;;;;5073462;28;20071;-30
2022/10/15 00:03:39;;;;;;;98.18;48.80;;;12.20;99.90;;;;;;5072802;28;20450;-30
2022/10/15 00:06:06;;;;;;;83.63;44.80;;;12.20;99.90;;;;;;5074026;28;20146;-30
2022/10/15 00:08:32;;;;;;;116.88;55.75;;;12.20;99.90;;;;;;5074231;28;20067;-30
2022/10/15 00:11:11;;;;;;;112.78;56.92;;;12.20;99.90;;;;;;5073360;28;20463;-30
2022/10/15 00:13:37;;;;;;;119.03;54.88;;;12.20;99.90;;;;;;5055716;28;20474;-31
2022/10/15 00:16:06;;;;;;;124.38;57.38;;;12.20;99.90;;;;;;5073834;28;20064;-30
2022/10/15 00:18:32;;;;;;;109.40;54.90;;;12.20;99.90;;;;;;5073295;28;20052;-30
2022/10/15 00:20:57;;;;;;;124.07;59.15;;;12.20;99.90;;;;;;5072267;28;20048;-30
2022/10/15 00:23:23;;;;;;;120.35;61.65;;;12.20;99.90;;;;;;5073195;28;20135;-31
2022/10/15 00:25:49;;;;;;;122.10;60.95;;;12.20;99.90;;;;;;5073258;28;20040;-30
2022/10/15 00:28:14;;;;;;;118.10;58.08;;;12.20;99.90;;;;;;5072097;28;20041;-30
2022/10/15 00:30:40;;;;;;;127.97;61.58;;;12.20;99.90;;;;;;5073173;28;20052;-30
2022/10/15 00:33:06;;;;;;;106.05;53.80;;;12.20;99.90;;;;;;5073147;28;20433;-30
2022/10/15 00:35:31;;;;;;;119.05;60.80;;;12.20;99.90;;;;;;5073073;28;20045;-31
2022/10/15 00:37:57;;;;;;;124.40;60.03;;;12.20;99.90;;;;;;5076065;28;20045;-30
2022/10/15 00:40:23;;;;;;;120.15;60.97;;;12.20;99.90;;;;;;5076844;28;20084;-30
2022/10/15 00:42:48;;;;;;;109.47;55.40;;;12.20;99.90;;;;;;5076486;28;20040;-29
2022/10/15 00:45:15;;;;;;;125.05;60.47;;;12.20;99.90;;;;;;5077005;28;20086;-30
2022/10/15 00:47:50;;;;;;;127.43;60.92;;;12.20;99.90;;;;;;5077303;28;20056;-30
2022/10/15 00:50:18;;;;;;;130.70;61.03;;;12.20;99.90;;;;;;5076550;28;20056;-29
2022/10/15 00:52:50;;;;;;;134.68;64.38;;;12.20;99.90;;;;;;5076303;28;20429;-30
2022/10/15 00:55:27;;;;;;;107.70;53.67;;;12.20;99.90;;;;;;5076817;28;20091;-30
2022/10/15 00:57:54;;;;;;;119.82;62.35;;;12.20;99.90;;;;;;5077440;28;20044;-30
2022/10/15 01:00:20;;;;;;;135.18;63.22;;;12.20;99.90;;;;;;5076480;28;20048;-30
2022/10/15 01:02:46;;;;;;;125.63;62.60;;;12.10;99.90;;;;;;5076490;28;20127;-29
2022/10/15 01:05:15;;;;;;;130.40;63.15;;;12.10;99.90;;;;;;5076413;28;20048;-30
2022/10/15 01:07:41;;;;;;;135.60;62.42;;;12.20;99.90;;;;;;5076320;28;20036;-30
2022/10/15 01:10:09;;;;;;;133.32;62.58;;;12.10;99.90;;;;;;5076348;28;20150;-30
2022/10/15 01:12:59;;;;;;;138.90;65.03;;;12.10;99.90;;;;;;5075926;28;20420;-31
2022/10/15 01:15:33;;;;;;;133.23;59.63;;;12.20;99.90;;;;;;5076158;28;20053;-30
2022/10/15 01:18:07;;;;;;;127.82;61.03;;;12.10;99.90;;;;;;5076180;28;20552;-30
2022/10/15 01:20:51;;;;;;;125.45;61.83;;;12.20;99.90;;;;;;5076468;28;20094;-29
2022/10/15 01:23:34;;;;;;;100.97;52.40;;;12.20;99.90;;;;;;5076744;28;20056;-30
2022/10/15 01:26:18;;;;;;;118.97;58.30;;;12.10;99.90;;;;;;5076639;28;20056;-30
2022/10/15 01:29:31;;;;;;;117.35;57.70;;;12.20;99.90;;;;;;5075923;28;20118;-30
2022/10/15 01:32:14;;;;;;;126.07;61.95;;;12.20;99.90;;;;;;5075954;28;20055;-31
2022/10/15 01:35:06;;;;;;;;;;;12.20;99.90;;;;;;5076274;28;20040;-31
2022/10/15 01:37:49;;;;;;;103.22;52.53;;;12.20;99.90;;;;;;5073227;28;19928;-31
2022/10/15 01:40:36;;;;;;;120.53;56.63;;;12.30;99.90;;;;;;5076358;28;20052;-31
2022/10/15 01:43:05;;;;;;;131.00;60.80;;;12.20;99.90;;;;;;5076601;28;20048;-30
2022/10/15 01:45:42;;;;;;;130.13;59.25;;;12.20;99.90;;;;;;5075623;28;20044;-30
2022/10/15 01:48:10;;;;;;;120.38;57.45;;;12.20;99.90;;;;;;5075082;28;20068;-30
2022/10/15 01:50:41;;;;;;;134.95;60.13;;;12.20;99.90;;;;;;5075727;28;20048;-30
2022/10/15 01:53:10;;;;;;;130.75;59.17;;;12.20;99.90;;;;;;5076398;28;20063;-30
2022/10/15 01:55:40;;;;;;;143.40;62.40;;;12.20;99.90;;;;;;5075008;28;20452;-30
2022/10/15 01:58:08;;;;;;;141.48;63.33;;;12.10;99.90;;;;;;5075850;28;20044;-32
2022/10/15 02:00:34;;;;;;;137.85;64.25;;;12.10;99.90;;;;;;5075882;28;20131;-30
2022/10/15 02:03:01;;;;;;;127.75;59.85;;;12.10;99.90;;;;;;5074152;28;20072;-30
2022/10/15 02:05:32;;;;;;;131.90;63.42;;;12.00;99.90;;;;;;5075321;28;20482;-30
2022/10/15 02:08:07;;;;;;;143.57;62.78;;;12.00;99.90;;;;;;5057889;28;20094;-30
2022/10/15 02:10:50;;;;;;;130.55;60.75;;;12.00;99.90;;;;;;5075727;28;20044;-30
2022/10/15 02:13:28;;;;;;;134.00;62.55;;;12.00;99.90;;;;;;5075401;28;20084;-30
2022/10/15 02:16:08;;;;;;;125.43;61.75;;;12.00;99.90;;;;;;5074941;28;20052;-30
2022/10/15 02:18:40;;;;;;;124.03;62.20;;;12.00;99.90;;;;;;5074903;28;20487;-31
2022/10/15 02:21:13;;;;;;;132.77;63.53;;;11.90;99.90;;;;;;5074900;28;20106;-30
2022/10/15 02:24:17;;;;;;;126.32;61.33;;;11.90;99.90;;;;;;5074904;28;20050;-30
2022/10/15 02:26:43;;;;;;;126.65;61.65;;;11.90;99.90;;;;;;5050432;28;20045;-30
2022/10/15 02:29:12;;;;;;;127.50;59.63;;;11.90;99.90;;;;;;5074144;28;20048;-30
2022/10/15 02:31:42;;;;;;;129.52;63.80;;;11.90;99.90;;;;;;5074709;28;20048;-29
2022/10/15 02:34:11;;;;;;;127.63;61.30;;;11.90;99.90;;;;;;5074598;28;20047;-29
2022/10/15 02:36:41;;;;;;;116.30;57.67;;;12.00;99.90;;;;;;5074883;28;20036;-30
2022/10/15 02:39:11;;;;;;;132.65;61.92;;;11.90;99.90;;;;;;5074606;28;20041;-30
2022/10/15 02:41:38;;;;;;;127.68;62.10;;;12.00;99.90;;;;;;5073923;28;20136;-30
2022/10/15 02:44:04;;;;;;;115.10;55.65;;;11.90;99.90;;;;;;5074181;28;20409;-30
2022/10/15 02:46:30;;;;;;;115.40;59.08;;;11.90;99.90;;;;;;5073302;28;20391;-30
2022/10/15 02:48:56;;;;;;;123.15;61.28;;;11.90;99.90;;;;;;5073809;28;20091;-30
2022/10/15 02:51:22;;;;;;;104.28;52.30;;;11.90;99.90;;;;;;5074055;28;20102;-29
2022/10/15 02:53:47;;;;;;;120.68;58.40;;;11.90;99.90;;;;;;5074481;28;20048;-30
2022/10/15 02:56:14;;;;;;;114.43;57.33;;;11.90;99.90;;;;;;5074082;28;20063;-30
2022/10/15 02:58:40;;;;;;;117.95;55.65;;;11.90;99.90;;;;;;5074143;28;20054;-30
2022/10/15 03:01:06;;;;;;;127.00;59.50;;;11.80;99.90;;;;;;5073401;28;20044;-30
2022/10/15 03:03:31;;;;;;;116.80;55.80;;;11.80;99.90;;;;;;5074125;28;20127;-30
2022/10/15 03:05:57;;;;;;;115.28;56.78;;;11.80;99.90;;;;;;5039853;28;20049;-29
2022/10/15 03:08:23;;;;;;;126.15;58.75;;;11.80;99.90;;;;;;5074074;28;20495;-30
2022/10/15 03:10:48;;;;;;;122.57;57.40;;;11.80;99.90;;;;;;5074323;28;20055;-29
2022/10/15 03:13:14;;;;;;;117.03;54.42;;;11.70;99.90;;;;;;5074261;28;20379;-29
2022/10/15 03:15:40;;;;;;;95.53;48.33;;;11.70;99.90;;;;;;5073881;28;20097;-31
2022/10/15 03:18:07;;;;;;;114.85;54.38;;;11.70;99.90;;;;;;5072686;28;20070;-30
2022/10/15 03:20:33;;;;;;;116.05;52.10;;;11.60;99.90;;;;;;5073925;28;20044;-30
2022/10/15 03:22:58;;;;;;;123.47;55.95;;;11.60;99.90;;;;;;5073866;28;20475;-31
2022/10/15 03:25:24;;;;;;;129.38;59.85;;;11.70;99.90;;;;;;5073839;28;20041;-32
2022/10/15 03:27:51;;;;;;;134.85;59.88;;;11.70;99.90;;;;;;5072638;28;20048;-31
2022/10/15 03:30:18;;;;;;;123.72;59.05;;;11.70;99.90;;;;;;5073837;28;20096;-29
2022/10/15 03:32:43;;;;;;;113.65;56.47;;;11.70;99.90;;;;;;5072830;28;20053;-31
2022/10/15 03:35:09;;;;;;;111.68;55.50;;;11.70;99.90;;;;;;5072568;28;20040;-30
2022/10/15 03:37:35;;;;;;;117.10;57.85;;;11.80;99.90;;;;;;5073707;28;20048;-30
2022/10/15 03:40:01;;;;;;;110.88;55.70;;;11.70;99.90;;;;;;5073682;28;20078;-29
2022/10/15 03:42:26;;;;;;;100.60;51.03;;;11.70;99.90;;;;;;5074202;28;20091;-30
2022/10/15 03:44:52;;;;;;;90.80;48.80;;;11.80;99.90;;;;;;5074177;28;20044;-29
2022/10/15 03:47:18;;;;;;;108.95;54.20;;;11.70;99.90;;;;;;5074209;28;20061;-29
2022/10/15 03:49:43;;;;;;;107.43;54.63;;;11.80;99.90;;;;;;5073521;28;20430;-29
2022/10/15 03:52:09;;;;;;;95.75;49.97;;;11.80;99.90;;;;;;5073237;28;20040;-29
2022/10/15 03:54:35;;;;;;;91.22;46.33;;;11.70;99.90;;;;;;5073685;28;20037;-29
2022/10/15 03:57:00;;;;;;;96.88;50.40;;;11.70;99.90;;;;;;5074046;28;20055;-29
2022/10/15 03:59:26;;;;;;;93.72;49.67;;;11.80;99.90;;;;;;5072571;28;20138;-30
2022/10/15 04:01:52;;;;;;;77.25;42.55;;;11.80;99.90;;;;;;5074033;28;20451;-30
2022/10/15 04:04:17;;;;;;;92.18;50.35;;;11.70;99.90;;;;;;5055782;28;20048;-30
2022/10/15 04:06:46;;;;;;;86.70;47.17;;;11.80;99.90;;;;;;5073686;28;20088;-30
2022/10/15 04:09:13;;;;;;;96.88;49.63;;;11.80;99.90;;;;;;5073418;28;20056;-30
2022/10/15 04:11:39;;;;;;;98.63;50.20;;;11.80;99.90;;;;;;5073355;28;20534;-29
2022/10/15 04:14:05;;;;;;;92.50;49.35;;;11.80;99.90;;;;;;5077560;28;20128;-30
2022/10/15 04:16:31;;;;;;;100.43;48.25;;;11.70;99.90;;;;;;5077326;28;20482;-29
2022/10/15 04:18:57;;;;;;;102.35;51.90;;;11.70;99.90;;;;;;5077272;28;20049;-29
2022/10/15 04:21:24;;;;;;;103.00;51.40;;;11.80;99.90;;;;;;5076571;28;20051;-30
2022/10/15 04:23:49;;;;;;;111.55;52.47;;;11.80;99.90;;;;;;5077080;28;20123;-30
2022/10/15 04:26:15;;;;;;;100.57;51.70;;;11.70;99.90;;;;;;5077710;28;20083;-30
2022/10/15 04:28:41;;;;;;;98.85;47.55;;;11.70;99.90;;;;;;5059528;28;20088;-31
2022/10/15 04:31:07;;;;;;;107.32;50.97;;;11.80;99.90;;;;;;5077903;28;20044;-29
2022/10/15 04:33:33;;;;;;;105.97;51.30;;;11.80;99.90;;;;;;5077840;28;20052;-29
2022/10/15 04:36:01;;;;;;;132.98;55.70;;;11.80;99.90;;;;;;5076919;28;20466;-30
2022/10/15 04:38:27;;;;;;;129.70;57.45;;;11.80;99.90;;;;;;5076927;28;20048;-30
2022/10/15 04:41:10;;;;;;;134.70;55.75;;;11.80;99.90;;;;;;5076874;28;20052;-28
2022/10/15 04:43:37;;;;;;;164.48;61.30;;;11.80;99.90;;;;;;5077084;28;20502;-28
2022/10/15 04:46:06;;;;;;;139.00;54.53;;;11.80;99.90;;;;;;5077391;28;20055;-29
2022/10/15 04:48:33;;;;;;;183.52;64.82;;;11.70;99.90;;;;;;5076572;28;20055;-29
2022/10/15 04:51:11;;;;;;;171.85;65.80;;;11.80;99.90;;;;;;5076012;28;20044;-30
2022/10/15 04:53:37;;;;;;;160.68;58.58;;;11.80;99.90;;;;;;5076623;28;20090;-29
2022/10/15 04:56:06;;;;;;;218.45;71.57;;;11.80;99.90;;;;;;5075317;28;20080;-31
2022/10/15 04:58:33;;;;;;;188.75;64.82;;;11.70;99.90;;;;;;5076422;28;20498;-30
2022/10/15 05:01:03;;;;;;;256.17;74.25;;;11.70;99.90;;;;;;5076529;28;20063;-30
2022/10/15 05:03:30;;;;;;;254.60;78.30;;;11.70;99.90;;;;;;5075271;28;20079;-30
2022/10/15 05:06:04;;;;;;;197.73;64.75;;;11.70;99.90;;;;;;5076413;28;20040;-31
2022/10/15 05:08:31;;;;;;;196.27;69.38;;;11.80;99.90;;;;;;5076918;28;20048;-31
2022/10/15 05:11:21;;;;;;;203.68;68.75;;;11.70;99.90;;;;;;5076347;28;20080;-31
2022/10/15 05:13:48;;;;;;;168.70;61.65;;;11.70;99.90;;;;;;5067999;28;20157;-31
2022/10/15 05:16:18;;;;;;;168.70;64.65;;;11.70;99.90;;;;;;5076161;28;20405;-31
2022/10/15 05:18:45;;;;;;;198.63;68.30;;;11.60;99.90;;;;;;5076726;28;20055;-30
2022/10/15 05:21:12;;;;;;;204.85;68.45;;;11.70;99.90;;;;;;5076165;28;20390;-30
2022/10/15 05:23:38;;;;;;;184.90;66.70;;;11.70;99.90;;;;;;5075436;28;20106;-31
2022/10/15 05:26:07;;;;;;;179.25;67.65;;;11.70;99.90;;;;;;5076053;28;20048;-30
2022/10/15 05:28:34;;;;;;;192.73;69.68;;;11.70;99.90;;;;;;5075070;28;20040;-30
2022/10/15 05:31:07;;;;;;;222.85;70.55;;;11.70;99.90;;;;;;5076508;28;20090;-31
2022/10/15 05:33:34;;;;;;;192.60;69.22;;;11.70;99.90;;;;;;5075937;28;20087;-31
2022/10/15 05:36:20;;;;;;;184.75;66.45;;;11.60;99.90;;;;;;5074599;28;20041;-31
2022/10/15 05:38:48;;;;;;;201.23;66.93;;;11.70;99.90;;;;;;5075832;28;20048;-32
2022/10/15 05:41:14;;;;;;;159.55;63.38;;;11.70;99.90;;;;;;5076616;28;20048;-32
2022/10/15 05:43:40;;;;;;;184.88;68.03;;;11.60;99.90;;;;;;5075788;28;20485;-31
2022/10/15 05:46:07;;;;;;;181.40;67.20;;;11.60;99.90;;;;;;5075661;28;20052;-31
2022/10/15 05:48:32;;;;;;;181.57;69.22;;;11.60;99.90;;;;;;5075804;28;20429;-31
2022/10/15 05:51:06;;;;;;;180.10;67.47;;;11.60;99.90;;;;;;5075624;28;20113;-31
2022/10/15 05:53:33;;;;;;;187.50;70.72;;;11.60;99.90;;;;;;5074477;28;20044;-32
2022/10/15 05:55:59;;;;;;;207.18;74.40;;;11.60;99.90;;;;;;5075433;28;20470;-32
2022/10/15 05:58:28;;;;;;;160.82;62.22;;;11.50;99.90;;;;;;5075365;28;20131;-32
2022/10/15 06:00:56;;;;;;;212.32;73.00;;;11.60;99.90;;;;;;5075071;28;20495;-31
2022/10/15 06:03:22;;;;;;;199.70;71.45;;;11.50;99.90;;;;;;5075066;28;20490;-32
2022/10/15 06:05:49;;;;;;;196.52;73.75;;;11.60;99.90;;;;;;5075306;28;20182;-32
2022/10/15 06:08:15;;;;;;;202.85;75.25;;;11.50;99.90;;;;;;5075231;28;20502;-31
2022/10/15 06:10:41;;;;;;;214.55;76.90;;;11.50;99.90;;;;;;5075466;28;20045;-32
2022/10/15 06:13:07;;;;;;;196.07;72.70;;;11.60;99.90;;;;;;5075744;28;20356;-32
2022/10/15 06:15:33;;;;;;;200.02;78.43;;;11.60;99.90;;;;;;5073557;28;20550;-32
2022/10/15 06:17:59;;;;;;;180.18;69.50;;;11.60;99.90;;;;;;5074715;28;20561;-32
2022/10/15 06:20:26;;;;;;;177.88;72.07;;;11.60;99.90;;;;;;5074993;28;20128;-33
2022/10/15 06:22:57;;;;;;;202.90;76.32;;;11.60;99.90;;;;;;5073777;28;20407;-32
2022/10/15 06:25:23;;;;;;;207.60;80.72;;;11.60;99.90;;;;;;5074604;28;20438;-33
2022/10/15 06:27:48;;;;;;;171.27;71.28;;;11.60;99.90;;;;;;5075453;28;20048;-32
2022/10/15 06:30:14;;;;;;;220.55;83.97;;;11.50;99.90;;;;;;5074737;28;20052;-32
2022/10/15 06:32:50;;;;;;;201.10;76.18;;;11.60;99.90;;;;;;5075244;28;20045;-33
2022/10/15 06:35:16;;;;;;;217.10;82.43;;;11.70;99.90;;;;;;5074837;28;20041;-33
2022/10/15 06:37:42;;;;;;;187.73;74.90;;;11.70;99.90;;;;;;5075415;28;20045;-34
2022/10/15 06:40:09;;;;;;;185.40;75.03;;;11.70;99.90;;;;;;5074813;28;20075;-33
2022/10/15 06:42:35;;;;;;;182.43;73.05;;;11.70;99.90;;;;;;5074577;28;20044;-33
2022/10/15 06:45:00;;;;;;;200.60;78.55;;;11.70;99.90;;;;;;5057142;28;20048;-33
2022/10/15 06:47:26;;;;;;;202.30;79.00;;;11.80;99.90;;;;;;5074134;28;20056;-33
2022/10/15 06:49:52;;;;;;;245.48;83.70;;;11.70;99.90;;;;;;5074429;28;20040;-33
2022/10/15 06:52:18;;;;;;;181.80;73.75;;;11.70;99.90;;;;;;5074342;28;20123;-34
2022/10/15 06:54:43;;;;;;;202.45;82.97;;;11.70;99.90;;;;;;5074008;28;20048;-33
2022/10/15 06:57:09;;;;;;;222.98;79.65;;;11.80;99.90;;;;;;5074564;28;20049;-33
2022/10/15 06:59:35;;;;;;;206.38;81.43;;;11.80;99.90;;;;;;5074229;28;20448;-33
2022/10/15 07:02:00;;;;;;;207.00;82.00;;;11.80;99.90;;;;;;5074116;28;20486;-34
2022/10/15 07:04:26;;;;;;;210.85;77.25;;;11.80;99.90;;;;;;5074130;28;20125;-34
2022/10/15 07:06:52;;;;;;;175.85;70.43;;;11.80;99.90;;;;;;5073973;28;20051;-33
2022/10/15 07:09:18;;;;;;;181.23;74.35;;;11.80;99.90;;;;;;5073465;28;20044;-33
2022/10/15 07:11:44;;;;;;;211.10;80.47;;;11.70;99.90;;;;;;5074002;28;20052;-33
2022/10/15 07:14:09;;;;;;;175.35;70.47;;;11.70;99.90;;;;;;5072683;28;20052;-33
2022/10/15 07:16:36;;;;;;;210.65;80.47;;;11.80;99.90;;;;;;5073587;28;20041;-33
2022/10/15 07:19:02;;;;;;;204.75;78.55;;;11.80;99.90;;;;;;5073267;28;20079;-33
2022/10/15 07:21:27;;;;;;;208.73;77.63;;;11.90;99.90;;;;;;5072972;28;20045;-33
2022/10/15 07:23:53;;;;;;;193.73;76.13;;;12.00;99.90;;;;;;5073742;28;20436;-35
2022/10/15 07:26:19;;;;;;;162.77;67.53;;;12.00;99.90;;;;;;5072595;28;20044;-34
2022/10/15 07:28:45;;;;;;;166.20;67.55;;;12.10;99.90;;;;;;5073914;28;20154;-34
2022/10/15 07:31:10;;;;;;;192.35;74.43;;;12.10;99.90;;;;;;5073962;28;20086;-34
2022/10/15 07:33:36;;;;;;;165.40;67.82;;;12.00;99.90;;;;;;5072826;28;20463;-34
2022/10/15 07:36:07;;;;;;;146.23;65.32;;;12.20;99.90;;;;;;5074736;28;20374;-33
2022/10/15 07:38:34;;;;;;;165.90;71.03;;;12.20;99.90;;;;;;5073767;28;20048;-33
2022/10/15 07:41:02;;;;;;;166.52;68.10;;;12.20;99.90;;;;;;5073535;28;20045;-34
2022/10/15 07:43:28;;;;;;;184.73;72.20;;;12.20;99.90;;;;;;5073556;28;20479;-34
2022/10/15 07:45:54;;;;;;;157.50;65.28;;;12.20;99.90;;;;;;5073560;28;20048;-34
2022/10/15 07:48:20;;;;;;;149.93;65.95;;;12.10;99.90;;;;;;5071846;28;20060;-33
2022/10/15 07:50:45;;;;;;;150.88;65.22;;;12.10;99.90;;;;;;5073536;28;20110;-33
2022/10/15 07:53:11;;;;;;;146.35;63.45;;;12.10;99.90;;;;;;5073500;28;20132;-34
2022/10/15 07:55:37;;;;;;;133.77;59.03;;;12.20;99.90;;;;;;5074279;28;20052;-34
2022/10/15 07:58:06;;;;;;;148.88;63.67;;;12.30;99.90;;;;;;5073439;28;20479;-33
2022/10/15 08:00:32;;;;;;;140.63;65.18;;;12.30;99.90;;;;;;5073480;28;20098;-34
2022/10/15 08:02:58;;;;;;;152.82;66.22;;;12.40;99.90;;;;;;5073521;28;20048;-33
2022/10/15 08:05:24;;;;;;;130.32;58.22;;;12.40;99.90;;;;;;5072319;28;20496;-33
2022/10/15 08:07:49;;;;;;;147.13;65.18;;;12.60;99.90;;;;;;5073449;28;20044;-34
2022/10/15 08:10:17;;;;;;;128.25;59.83;;;12.60;99.90;;;;;;5055773;28;20131;-34
2022/10/15 08:12:43;;;;;;;126.70;61.70;;;12.70;99.90;;;;;;5073411;28;20048;-34
2022/10/15 08:15:09;;;;;;;125.32;59.13;;;12.80;99.90;;;;;;5073328;28;20041;-33
2022/10/15 08:17:35;;;;;;;128.00;59.83;;;12.80;99.90;;;;;;5073558;28;20554;-34
2022/10/15 08:20:01;;;;;;;120.55;56.33;;;12.90;99.90;;;;;;5072776;28;20135;-35
2022/10/15 08:22:26;;;;;;;103.53;52.80;;;12.80;99.90;;;;;;5072350;28;20134;-33
2022/10/15 08:24:52;;;;;;;117.93;57.72;;;12.90;99.90;;;;;;5073259;28;20037;-33
2022/10/15 08:27:18;;;;;;;133.85;64.47;;;12.80;99.90;;;;;;5072028;28;20048;-36
2022/10/15 08:29:44;;;;;;;129.25;63.60;;;12.90;99.90;;;;;;5073420;28;20052;-34
2022/10/15 08:32:11;;;;;;;128.73;62.75;;;12.90;99.90;;;;;;5073108;28;20478;-33
2022/10/15 08:34:37;;;;;;;121.45;58.42;;;13.00;99.90;;;;;;5073075;28;20036;-33
2022/10/15 08:37:02;;;;;;;118.05;59.42;;;13.00;99.90;;;;;;5073414;28;20049;-34
2022/10/15 08:39:28;;;;;;;108.47;55.08;;;13.00;99.90;;;;;;5073119;28;20402;-34
2022/10/15 08:41:58;;;;;;;116.47;58.75;;;13.00;99.90;;;;;;5072960;28;20088;-33
2022/10/15 08:44:33;;;;;;;101.53;51.65;;;13.00;99.90;;;;;;5073347;28;20494;-33
2022/10/15 08:47:16;;;;;;;120.97;57.78;;;13.10;99.90;;;;;;5073450;28;20052;-33
2022/10/15 08:49:50;;;;;;;95.95;52.75;;;13.10;99.90;;;;;;5073722;28;20127;-33
2022/10/15 08:52:21;;;;;;;;;;;13.10;99.90;;;;;;5072495;28;20047;-33
2022/10/15 08:54:47;;;;;;;95.85;50.40;;;13.10;99.90;;;;;;5072944;28;20031;-33
2022/10/15 08:57:34;;;;;;;105.43;52.70;;;13.10;99.90;;;;;;5055319;28;20170;-33
2022/10/15 09:00:16;;;;;;;99.03;49.90;;;13.10;99.90;;;;;;5075794;28;20508;-34
2022/10/15 09:03:20;;;;;;;111.53;53.00;;;13.20;99.90;;;;;;5076896;28;20041;-34
2022/10/15 09:05:51;;;;;;;96.55;53.10;;;13.20;99.90;;;;;;5056656;28;20486;-33
2022/10/15 09:08:38;;;;;;;82.78;45.63;;;13.30;99.90;;;;;;5076385;28;20052;-33
2022/10/15 09:11:21;;;;;;;92.28;48.78;;;13.30;99.90;;;;;;5076371;28;20441;-36
2022/10/15 09:13:47;;;;;;;78.00;47.42;;;13.30;99.90;;;;;;5077410;28;20141;-32
2022/10/15 09:16:15;;;;;;;91.38;48.85;;;13.30;99.90;;;;;;5076180;28;20479;-33
2022/10/15 09:18:45;;;;;;;90.13;50.63;;;13.40;99.90;;;;;;5076215;28;20041;-34
2022/10/15 09:21:12;;;;;;;78.38;46.70;;;13.40;99.90;;;;;;5077038;28;20056;-35
2022/10/15 09:23:40;;;;;;;91.82;49.25;;;13.40;99.90;;;;;;5076716;28;20045;-35
2022/10/15 09:26:17;;;;;;;98.10;52.10;;;13.40;99.90;;;;;;5076601;28;20056;-34
2022/10/15 09:29:16;;;;;;;76.78;44.50;;;13.40;99.90;;;;;;5076911;28;20119;-33
2022/10/15 09:32:03;;;;;;;86.55;47.67;;;13.30;99.90;;;;;;5068425;28;20110;-33
2022/10/15 09:35:00;;;;;;;75.63;42.65;;;13.30;99.90;;;;;;5076491;28;20051;-33
2022/10/15 09:37:37;;;;;;;97.35;47.80;;;13.20;99.90;;;;;;5061380;28;20053;-33
2022/10/15 09:40:38;;;;;;;91.43;47.25;;;13.20;99.90;;;;;;5075859;28;20143;-33
2022/10/15 09:43:06;;;;;;;92.35;48.15;;;13.10;99.90;;;;;;5062319;28;20063;-34
2022/10/15 09:45:32;;;;;;;93.50;48.72;;;13.00;99.90;;;;;;5075723;28;20119;-33
2022/10/15 09:47:59;;;;;;;89.03;46.33;;;13.00;99.90;;;;;;5075556;28;20048;-34
2022/10/15 09:50:39;;;;;;;83.65;46.03;;;13.00;99.90;;;;;;5074637;28;20092;-36
2022/10/15 09:53:21;;;;;;;68.85;39.58;;;13.00;99.90;;;;;;5076149;28;20067;-34
2022/10/15 09:55:55;;;;;;;57.80;34.42;;;13.10;99.90;;;;;;5075145;28;20049;-34
2022/10/15 09:58:25;;;;;;;105.28;38.13;;;13.10;99.90;;;;;;5075358;28;20051;-32
2022/10/15 10:01:01;;;;;;;51.45;31.83;;;13.10;99.90;;;;;;5075018;28;20491;-33
2022/10/15 10:03:30;;;;;;;63.90;36.95;;;13.10;99.90;;;;;;5075241;28;20051;-33
2022/10/15 10:06:05;;;;;;;61.28;37.20;;;13.10;99.90;;;;;;5074318;28;20048;-33
2022/10/15 10:08:38;;;;;;;61.75;35.70;;;13.10;99.90;;;;;;5075839;28;20048;-32
2022/10/15 10:11:08;;;;;;;66.35;34.78;;;13.00;99.90;;;;;;5075113;28;20056;-34
2022/10/15 10:13:43;;;;;;;47.85;27.17;;;13.00;99.90;;;;;;5075764;28;20087;-32
2022/10/15 10:16:10;;;;;;;88.10;34.08;;;12.90;99.90;;;;;;5075115;28;20048;-33
2022/10/15 10:18:36;;;;;;;141.45;40.90;;;12.80;99.90;;;;;;5073912;28;20394;-32
2022/10/15 10:21:05;;;;;;;51.03;29.15;;;13.00;99.90;;;;;;5073802;28;20560;-33
2022/10/15 10:23:37;;;;;;;75.32;30.60;;;13.10;99.90;;;;;;5074969;28;20456;-32
2022/10/15 10:26:06;;;;;;;142.68;38.58;;;13.20;99.90;;;;;;5074234;28;20109;-33
2022/10/15 10:28:36;;;;;;;73.28;30.65;;;13.30;99.90;;;;;;5074850;28;20051;-34
2022/10/15 10:31:07;;;;;;;107.32;36.78;;;13.40;99.90;;;;;;5075128;28;20041;-33
2022/10/15 10:33:46;;;;;;;47.03;29.77;;;13.60;99.90;;;;;;5074803;28;20123;-33
2022/10/15 10:36:27;;;;;;;47.85;30.75;;;13.90;99.90;;;;;;5075536;28;20144;-36
2022/10/15 10:39:22;;;;;;;46.17;28.65;;;14.10;99.90;;;;;;5074630;28;20429;-33
2022/10/15 10:41:57;;;;;;;44.45;27.90;;;14.20;99.90;;;;;;5060458;28;20053;-34
2022/10/15 10:44:40;;;;;;;171.00;41.97;;;14.30;99.90;;;;;;5073265;28;20048;-33
2022/10/15 10:47:09;;;;;;;48.70;28.65;;;14.30;99.90;;;;;;5074214;28;20049;-33
2022/10/15 10:49:42;;;;;;;43.47;27.50;;;14.50;99.90;;;;;;5074774;28;20367;-33
2022/10/15 10:52:27;;;;;;;37.75;26.80;;;14.60;99.90;;;;;;5073418;28;20376;-33
2022/10/15 10:55:19;;;;;;;44.53;27.85;;;14.60;99.90;;;;;;5074268;28;20052;-33
2022/10/15 10:57:51;;;;;;;33.58;22.52;;;14.60;99.90;;;;;;5074280;28;20117;-33
2022/10/15 11:00:28;;;;;;;31.90;22.17;;;14.60;99.90;;;;;;5074193;28;20501;-33
2022/10/15 11:02:55;;;;;;;32.25;21.02;;;14.60;99.90;;;;;;5074226;28;20502;-34
2022/10/15 11:05:33;;;;;;;32.30;21.30;;;14.60;99.90;;;;;;5074138;28;20094;-32
2022/10/15 11:08:02;;;;;;;30.60;21.38;;;14.50;99.90;;;;;;5074185;28;20093;-33
2022/10/15 11:10:36;;;;;;;31.42;20.92;;;14.50;99.90;;;;;;5074131;28;20106;-33
2022/10/15 11:13:02;;;;;;;27.25;19.52;;;14.50;99.90;;;;;;5072929;28;20041;-32
2022/10/15 11:15:39;;;;;;;24.95;18.90;;;14.50;99.90;;;;;;5073686;28;20059;-32
2022/10/15 11:18:42;;;;;;;28.92;18.92;;;14.50;99.90;;;;;;5074628;28;20053;-32
2022/10/15 11:21:32;;;;;;;25.55;18.52;;;14.50;99.90;;;;;;5073266;28;20124;-32
2022/10/15 11:24:20;;;;;;;23.02;16.88;;;14.70;99.90;;;;;;5073813;28;20066;-32
2022/10/15 11:26:55;;;;;;;24.08;17.75;;;14.70;99.90;;;;;;5073917;28;20048;-32
2022/10/15 11:29:38;;;;;;;22.65;17.60;;;14.80;99.90;;;;;;5074494;28;20044;-31
2022/10/15 11:32:20;;;;;;;27.40;16.95;;;14.90;99.90;;;;;;5073836;28;20055;-32
2022/10/15 11:35:18;;;;;;;21.67;15.88;;;14.90;99.90;;;;;;5074319;28;20198;-31
2022/10/15 11:38:01;;;;;;;22.08;16.80;;;14.90;99.90;;;;;;5074661;28;20226;-32
2022/10/15 11:40:35;;;;;;;;;;;15.00;99.90;;;;;;5074965;28;20044;-31
2022/10/15 11:43:14;;;;;;;33.00;18.17;;;14.90;99.90;;;;;;5072664;28;19971;-32
2022/10/15 11:46:04;;;;;;;19.15;14.73;;;15.00;99.90;;;;;;5073289;28;20453;-31
2022/10/15 11:48:46;;;;;;;22.70;16.58;;;15.00;99.90;;;;;;5072936;28;20446;-32
2022/10/15 11:51:30;;;;;;;20.25;15.60;;;15.20;99.90;;;;;;5073276;28;20048;-31
2022/10/15 11:54:32;;;;;;;17.20;13.23;;;15.40;99.90;;;;;;5073476;28;20063;-32
2022/10/15 11:57:01;;;;;;;18.83;15.48;;;15.50;99.90;;;;;;5020138;28;20172;-31
2022/10/15 11:59:36;;;;;;;17.55;13.98;;;15.60;99.90;;;;;;5073745;28;20604;-31
2022/10/15 12:02:23;;;;;;;17.13;13.93;;;15.70;99.90;;;;;;5074667;28;20158;-32
2022/10/15 12:04:59;;;;;;;22.05;14.65;;;15.90;99.90;;;;;;5073750;28;20036;-32
2022/10/15 12:07:33;;;;;;;16.20;12.60;;;16.00;99.90;;;;;;5072394;28;20060;-32
2022/10/15 12:10:10;;;;;;;17.58;14.10;;;16.60;99.90;;;;;;5074095;28;20382;-30
2022/10/15 12:12:47;;;;;;;19.50;13.57;;;16.60;99.90;;;;;;5074252;28;20109;-29
2022/10/15 12:15:26;;;;;;;27.13;15.98;;;16.40;99.90;;;;;;5073320;28;20044;-31
2022/10/15 12:17:57;;;;;;;25.17;15.50;;;16.30;99.90;;;;;;5073592;28;20135;-29
2022/10/15 12:20:23;;;;;;;20.25;15.07;;;16.10;99.90;;;;;;5056088;28;20056;-29
2022/10/15 12:22:51;;;;;;;17.63;14.85;;;15.90;99.90;;;;;;5073307;28;20049;-30
2022/10/15 12:25:32;;;;;;;19.45;15.20;;;15.70;99.90;;;;;;5073338;28;20088;-30
2022/10/15 12:28:04;;;;;;;19.60;16.33;;;15.40;99.90;;;;;;5073498;28;20559;-29
2022/10/15 12:30:33;;;;;;;20.48;16.55;;;15.30;99.90;;;;;;5073594;28;20118;-29
2022/10/15 12:33:00;;;;;;;21.17;15.82;;;15.20;99.90;;;;;;5074672;28;20403;-29
2022/10/15 12:35:37;;;;;;;17.80;13.82;;;15.20;99.90;;;;;;5076937;28;20065;-29
2022/10/15 12:38:19;;;;;;;20.65;15.27;;;15.30;99.90;;;;;;5076979;28;20091;-29
2022/10/15 12:40:45;;;;;;;21.05;14.25;;;15.40;99.90;;;;;;5076984;28;20080;-29